sensor_id;sensor_type;location;lat;lon;timestamp;temperature;humidity
29431;DHT22;16404;49.902;10.074;2023-04-06T00:00:12;3.60;46.30
29431;DHT22;16404;49.902;10.074;2023-04-06T00:02:57;3.50;46.60
29431;DHT22;16404;49.902;10.074;2023-04-06T00:05:41;3.50;46.70
29431;DHT22;16404;49.902;10.074;2023-04-06T00:08:26;3.50;46.70
29431;DHT22;16404;49.902;10.074;2023-04-06T00:11:11;3.40;46.40
29431;DHT22;16404;49.902;10.074;2023-04-06T00:13:55;3.30;46.10
29431;DHT22;16404;49.902;10.074;2023-04-06T00:16:40;3.30;46.20
29431;DHT22;16404;49.902;10.074;2023-04-06T00:19:25;3.30;46.30
29431;DHT22;16404;49.902;10.074;2023-04-06T00:22:09;3.30;46.40
29431;DHT22;16404;49.902;10.074;2023-04-06T00:24:54;3.40;46.50
29431;DHT22;16404;49.902;10.074;2023-04-06T00:27:38;3.30;46.60
29431;DHT22;16404;49.902;10.074;2023-04-06T00:30:23;3.30;46.50
29431;DHT22;16404;49.902;10.074;2023-04-06T00:33:08;3.20;46.40
29431;DHT22;16404;49.902;10.074;2023-04-06T00:35:52;3.20;46.20
29431;DHT22;16404;49.902;10.074;2023-04-06T00:38:37;3.20;46.10
29431;DHT22;16404;49.902;10.074;2023-04-06T00:41:21;3.10;46.00
29431;DHT22;16404;49.902;10.074;2023-04-06T00:44:06;3.10;46.00
29431;DHT22;16404;49.902;10.074;2023-04-06T00:46:51;3.00;45.90
29431;DHT22;16404;49.902;10.074;2023-04-06T00:49:35;3.00;45.90
29431;DHT22;16404;49.902;10.074;2023-04-06T00:52:20;3.00;46.00
29431;DHT22;16404;49.902;10.074;2023-04-06T00:55:06;3.00;45.90
29431;DHT22;16404;49.902;10.074;2023-04-06T00:57:58;3.00;46.40
29431;DHT22;16404;49.902;10.074;2023-04-06T01:00:45;3.00;46.80
29431;DHT22;16404;49.902;10.074;2023-04-06T01:03:34;2.90;46.70
29431;DHT22;16404;49.902;10.074;2023-04-06T01:06:19;2.90;46.80
29431;DHT22;16404;49.902;10.074;2023-04-06T01:09:12;2.90;46.80
29431;DHT22;16404;49.902;10.074;2023-04-06T01:11:57;2.90;46.60
29431;DHT22;16404;49.902;10.074;2023-04-06T01:14:47;2.80;46.50
29431;DHT22;16404;49.902;10.074;2023-04-06T01:17:32;2.80;46.50
29431;DHT22;16404;49.902;10.074;2023-04-06T01:20:23;2.70;46.50
29431;DHT22;16404;49.902;10.074;2023-04-06T01:23:09;2.70;46.60
29431;DHT22;16404;49.902;10.074;2023-04-06T01:26:00;2.70;46.70
29431;DHT22;16404;49.902;10.074;2023-04-06T01:28:46;2.70;47.00
29431;DHT22;16404;49.902;10.074;2023-04-06T01:31:43;2.70;47.10
29431;DHT22;16404;49.902;10.074;2023-04-06T01:34:27;2.70;47.40
29431;DHT22;16404;49.902;10.074;2023-04-06T01:37:15;2.70;47.90
29431;DHT22;16404;49.902;10.074;2023-04-06T01:40:00;2.70;48.30
29431;DHT22;16404;49.902;10.074;2023-04-06T01:42:58;2.80;48.20
29431;DHT22;16404;49.902;10.074;2023-04-06T01:45:52;2.70;47.70
29431;DHT22;16404;49.902;10.074;2023-04-06T01:48:39;2.70;47.70
29431;DHT22;16404;49.902;10.074;2023-04-06T01:51:59;2.70;47.70
29431;DHT22;16404;49.902;10.074;2023-04-06T01:54:43;2.70;47.50
29431;DHT22;16404;49.902;10.074;2023-04-06T01:57:49;2.80;47.50
29431;DHT22;16404;49.902;10.074;2023-04-06T02:00:46;2.70;47.20
29431;DHT22;16404;49.902;10.074;2023-04-06T02:03:31;2.70;47.50
29431;DHT22;16404;49.902;10.074;2023-04-06T02:06:22;2.80;47.60
29431;DHT22;16404;49.902;10.074;2023-04-06T02:09:08;2.70;47.20
29431;DHT22;16404;49.902;10.074;2023-04-06T02:11:52;2.70;47.50
29431;DHT22;16404;49.902;10.074;2023-04-06T02:14:37;2.70;48.00
29431;DHT22;16404;49.902;10.074;2023-04-06T02:17:21;2.70;48.40
29431;DHT22;16404;49.902;10.074;2023-04-06T02:20:06;2.70;48.20
29431;DHT22;16404;49.902;10.074;2023-04-06T02:22:51;2.70;47.70
29431;DHT22;16404;49.902;10.074;2023-04-06T02:25:35;2.70;47.90
29431;DHT22;16404;49.902;10.074;2023-04-06T02:28:21;2.60;47.90
29431;DHT22;16404;49.902;10.074;2023-04-06T02:31:05;2.50;48.00
29431;DHT22;16404;49.902;10.074;2023-04-06T02:33:50;2.50;48.30
29431;DHT22;16404;49.902;10.074;2023-04-06T02:36:35;2.50;48.50
29431;DHT22;16404;49.902;10.074;2023-04-06T02:39:19;2.50;48.80
29431;DHT22;16404;49.902;10.074;2023-04-06T02:42:04;2.50;49.20
29431;DHT22;16404;49.902;10.074;2023-04-06T02:44:49;2.50;49.30
29431;DHT22;16404;49.902;10.074;2023-04-06T02:47:35;2.50;49.30
29431;DHT22;16404;49.902;10.074;2023-04-06T02:50:19;2.50;49.30
29431;DHT22;16404;49.902;10.074;2023-04-06T02:53:12;2.40;49.40
29431;DHT22;16404;49.902;10.074;2023-04-06T02:55:57;2.40;49.20
29431;DHT22;16404;49.902;10.074;2023-04-06T02:58:48;2.40;49.00
29431;DHT22;16404;49.902;10.074;2023-04-06T03:01:32;2.40;49.10
29431;DHT22;16404;49.902;10.074;2023-04-06T03:04:20;2.40;49.30
29431;DHT22;16404;49.902;10.074;2023-04-06T03:07:08;2.40;49.40
29431;DHT22;16404;49.902;10.074;2023-04-06T03:09:56;2.40;49.60
29431;DHT22;16404;49.902;10.074;2023-04-06T03:12:41;2.40;49.80
29431;DHT22;16404;49.902;10.074;2023-04-06T03:15:28;2.30;50.00
29431;DHT22;16404;49.902;10.074;2023-04-06T03:18:24;2.30;50.00
29431;DHT22;16404;49.902;10.074;2023-04-06T03:21:10;2.30;50.30
29431;DHT22;16404;49.902;10.074;2023-04-06T03:24:05;2.20;50.60
29431;DHT22;16404;49.902;10.074;2023-04-06T03:26:49;2.20;50.70
29431;DHT22;16404;49.902;10.074;2023-04-06T03:29:34;2.20;50.40
29431;DHT22;16404;49.902;10.074;2023-04-06T03:32:18;2.20;50.30
29431;DHT22;16404;49.902;10.074;2023-04-06T03:35:04;2.10;50.00
29431;DHT22;16404;49.902;10.074;2023-04-06T03:37:49;2.10;50.00
29431;DHT22;16404;49.902;10.074;2023-04-06T03:40:34;2.10;50.30
29431;DHT22;16404;49.902;10.074;2023-04-06T03:43:18;2.10;50.30
29431;DHT22;16404;49.902;10.074;2023-04-06T03:46:03;2.10;50.10
29431;DHT22;16404;49.902;10.074;2023-04-06T03:48:48;2.00;50.00
29431;DHT22;16404;49.902;10.074;2023-04-06T03:51:34;2.10;50.00
29431;DHT22;16404;49.902;10.074;2023-04-06T03:54:19;2.00;49.40
29431;DHT22;16404;49.902;10.074;2023-04-06T03:57:04;2.00;49.20
29431;DHT22;16404;49.902;10.074;2023-04-06T03:59:49;1.90;49.10
29431;DHT22;16404;49.902;10.074;2023-04-06T04:02:33;1.90;48.90
29431;DHT22;16404;49.902;10.074;2023-04-06T04:05:18;1.90;48.90
29431;DHT22;16404;49.902;10.074;2023-04-06T04:08:03;1.90;49.00
29431;DHT22;16404;49.902;10.074;2023-04-06T04:10:48;1.90;49.70
29431;DHT22;16404;49.902;10.074;2023-04-06T04:13:33;1.90;50.10
29431;DHT22;16404;49.902;10.074;2023-04-06T04:16:19;1.90;50.00
29431;DHT22;16404;49.902;10.074;2023-04-06T04:19:04;1.90;49.80
29431;DHT22;16404;49.902;10.074;2023-04-06T04:21:49;1.80;49.90
29431;DHT22;16404;49.902;10.074;2023-04-06T04:24:39;1.80;50.00
29431;DHT22;16404;49.902;10.074;2023-04-06T04:27:24;1.80;50.10
29431;DHT22;16404;49.902;10.074;2023-04-06T04:30:10;1.80;50.20
29431;DHT22;16404;49.902;10.074;2023-04-06T04:32:54;1.70;50.20
29431;DHT22;16404;49.902;10.074;2023-04-06T04:35:41;1.70;50.40
29431;DHT22;16404;49.902;10.074;2023-04-06T04:38:28;1.70;50.40
29431;DHT22;16404;49.902;10.074;2023-04-06T04:41:14;1.70;50.30
29431;DHT22;16404;49.902;10.074;2023-04-06T04:44:01;1.70;50.40
29431;DHT22;16404;49.902;10.074;2023-04-06T04:46:46;1.70;50.60
29431;DHT22;16404;49.902;10.074;2023-04-06T04:49:33;1.70;50.70
29431;DHT22;16404;49.902;10.074;2023-04-06T04:52:18;1.70;50.60
29431;DHT22;16404;49.902;10.074;2023-04-06T04:55:25;1.70;50.50
29431;DHT22;16404;49.902;10.074;2023-04-06T04:58:13;1.70;50.10
29431;DHT22;16404;49.902;10.074;2023-04-06T05:01:19;1.70;50.10
29431;DHT22;16404;49.902;10.074;2023-04-06T05:04:04;1.60;50.60
29431;DHT22;16404;49.902;10.074;2023-04-06T05:06:49;1.60;50.20
29431;DHT22;16404;49.902;10.074;2023-04-06T05:09:34;1.70;50.50
29431;DHT22;16404;49.902;10.074;2023-04-06T05:12:19;1.70;50.50
29431;DHT22;16404;49.902;10.074;2023-04-06T05:15:31;1.70;50.70
29431;DHT22;16404;49.902;10.074;2023-04-06T05:18:23;1.70;51.20
29431;DHT22;16404;49.902;10.074;2023-04-06T05:21:07;1.80;51.70
29431;DHT22;16404;49.902;10.074;2023-04-06T05:24:09;1.80;52.00
29431;DHT22;16404;49.902;10.074;2023-04-06T05:26:54;1.80;52.40
29431;DHT22;16404;49.902;10.074;2023-04-06T05:29:41;1.90;52.80
29431;DHT22;16404;49.902;10.074;2023-04-06T05:32:27;2.00;53.00
29431;DHT22;16404;49.902;10.074;2023-04-06T05:35:12;2.00;53.60
29431;DHT22;16404;49.902;10.074;2023-04-06T05:37:59;2.10;53.30
29431;DHT22;16404;49.902;10.074;2023-04-06T05:40:44;2.30;53.50
29431;DHT22;16404;49.902;10.074;2023-04-06T05:43:33;2.40;53.70
29431;DHT22;16404;49.902;10.074;2023-04-06T05:46:19;2.50;53.90
29431;DHT22;16404;49.902;10.074;2023-04-06T05:49:04;2.60;53.80
29431;DHT22;16404;49.902;10.074;2023-04-06T05:51:51;2.70;53.80
29431;DHT22;16404;49.902;10.074;2023-04-06T05:54:37;2.80;53.90
29431;DHT22;16404;49.902;10.074;2023-04-06T05:57:21;3.00;54.00
29431;DHT22;16404;49.902;10.074;2023-04-06T06:00:08;3.00;53.80
29431;DHT22;16404;49.902;10.074;2023-04-06T06:02:57;3.20;54.10
29431;DHT22;16404;49.902;10.074;2023-04-06T06:05:45;3.30;54.10
29431;DHT22;16404;49.902;10.074;2023-04-06T06:08:37;3.50;54.20
29431;DHT22;16404;49.902;10.074;2023-04-06T06:11:27;3.60;54.50
29431;DHT22;16404;49.902;10.074;2023-04-06T06:14:12;3.70;54.70
29431;DHT22;16404;49.902;10.074;2023-04-06T06:16:59;4.00;55.00
29431;DHT22;16404;49.902;10.074;2023-04-06T06:19:45;4.10;55.00
29431;DHT22;16404;49.902;10.074;2023-04-06T06:22:30;4.30;55.00
29431;DHT22;16404;49.902;10.074;2023-04-06T06:25:15;4.50;54.90
29431;DHT22;16404;49.902;10.074;2023-04-06T06:28:00;4.60;54.90
29431;DHT22;16404;49.902;10.074;2023-04-06T06:30:47;4.80;54.70
29431;DHT22;16404;49.902;10.074;2023-04-06T06:33:37;5.00;54.60
29431;DHT22;16404;49.902;10.074;2023-04-06T06:36:22;5.20;54.70
29431;DHT22;16404;49.902;10.074;2023-04-06T06:39:07;5.40;54.50
29431;DHT22;16404;49.902;10.074;2023-04-06T06:41:52;5.60;54.30
29431;DHT22;16404;49.902;10.074;2023-04-06T06:44:41;5.90;54.10
29431;DHT22;16404;49.902;10.074;2023-04-06T06:47:26;6.00;53.80
29431;DHT22;16404;49.902;10.074;2023-04-06T06:50:10;6.30;53.70
29431;DHT22;16404;49.902;10.074;2023-04-06T06:52:55;6.50;53.40
29431;DHT22;16404;49.902;10.074;2023-04-06T06:55:40;6.70;53.20
29431;DHT22;16404;49.902;10.074;2023-04-06T06:58:25;6.80;53.00
29431;DHT22;16404;49.902;10.074;2023-04-06T07:01:09;7.00;52.80
29431;DHT22;16404;49.902;10.074;2023-04-06T07:03:54;7.20;52.40
29431;DHT22;16404;49.902;10.074;2023-04-06T07:06:39;7.30;52.30
29431;DHT22;16404;49.902;10.074;2023-04-06T07:09:24;7.50;52.10
29431;DHT22;16404;49.902;10.074;2023-04-06T07:12:10;7.70;51.90
29431;DHT22;16404;49.902;10.074;2023-04-06T07:14:55;7.90;51.70
29431;DHT22;16404;49.902;10.074;2023-04-06T07:17:40;8.10;51.60
29431;DHT22;16404;49.902;10.074;2023-04-06T07:20:30;8.30;51.60
29431;DHT22;16404;49.902;10.074;2023-04-06T07:23:14;8.50;51.20
29431;DHT22;16404;49.902;10.074;2023-04-06T07:25:59;8.70;50.80
29431;DHT22;16404;49.902;10.074;2023-04-06T07:28:44;8.90;50.40
29431;DHT22;16404;49.902;10.074;2023-04-06T07:31:30;9.10;49.90
29431;DHT22;16404;49.902;10.074;2023-04-06T07:34:14;9.20;49.30
29431;DHT22;16404;49.902;10.074;2023-04-06T07:36:59;9.40;48.70
29431;DHT22;16404;49.902;10.074;2023-04-06T07:39:45;9.60;48.20
29431;DHT22;16404;49.902;10.074;2023-04-06T07:42:31;9.70;48.10
29431;DHT22;16404;49.902;10.074;2023-04-06T07:45:17;9.80;47.70
29431;DHT22;16404;49.902;10.074;2023-04-06T07:48:01;10.00;47.30
29431;DHT22;16404;49.902;10.074;2023-04-06T07:50:47;10.20;47.10
29431;DHT22;16404;49.902;10.074;2023-04-06T07:53:33;10.30;47.00
29431;DHT22;16404;49.902;10.074;2023-04-06T07:56:18;10.50;47.00
29431;DHT22;16404;49.902;10.074;2023-04-06T07:59:02;10.80;46.80
29431;DHT22;16404;49.902;10.074;2023-04-06T08:01:47;11.00;46.40
29431;DHT22;16404;49.902;10.074;2023-04-06T08:04:32;11.20;46.20
29431;DHT22;16404;49.902;10.074;2023-04-06T08:07:16;11.30;46.00
29431;DHT22;16404;49.902;10.074;2023-04-06T08:10:01;11.40;45.50
29431;DHT22;16404;49.902;10.074;2023-04-06T08:12:46;11.60;45.30
29431;DHT22;16404;49.902;10.074;2023-04-06T08:15:30;11.80;44.80
29431;DHT22;16404;49.902;10.074;2023-04-06T08:18:15;12.00;44.60
29431;DHT22;16404;49.902;10.074;2023-04-06T08:20:59;12.20;44.10
29431;DHT22;16404;49.902;10.074;2023-04-06T08:23:44;12.30;43.90
29431;DHT22;16404;49.902;10.074;2023-04-06T08:26:30;12.50;43.80
29431;DHT22;16404;49.902;10.074;2023-04-06T08:29:14;12.60;43.50
29431;DHT22;16404;49.902;10.074;2023-04-06T08:32:00;12.70;43.40
29431;DHT22;16404;49.902;10.074;2023-04-06T08:34:47;12.80;43.10
29431;DHT22;16404;49.902;10.074;2023-04-06T08:37:32;13.00;42.80
29431;DHT22;16404;49.902;10.074;2023-04-06T08:40:16;13.10;42.70
29431;DHT22;16404;49.902;10.074;2023-04-06T08:43:03;13.30;42.30
29431;DHT22;16404;49.902;10.074;2023-04-06T08:45:52;13.40;41.60
29431;DHT22;16404;49.902;10.074;2023-04-06T08:48:39;13.60;41.50
29431;DHT22;16404;49.902;10.074;2023-04-06T08:51:24;13.70;41.50
29431;DHT22;16404;49.902;10.074;2023-04-06T08:54:12;13.90;41.40
29431;DHT22;16404;49.902;10.074;2023-04-06T08:56:57;14.00;40.90
29431;DHT22;16404;49.902;10.074;2023-04-06T08:59:42;14.20;40.00
29431;DHT22;16404;49.902;10.074;2023-04-06T09:02:27;14.50;40.20
29431;DHT22;16404;49.902;10.074;2023-04-06T09:05:12;14.60;40.30
29431;DHT22;16404;49.902;10.074;2023-04-06T09:07:57;14.70;40.20
29431;DHT22;16404;49.902;10.074;2023-04-06T09:10:41;15.00;40.20
29431;DHT22;16404;49.902;10.074;2023-04-06T09:13:26;15.10;39.30
29431;DHT22;16404;49.902;10.074;2023-04-06T09:16:10;15.20;39.40
29431;DHT22;16404;49.902;10.074;2023-04-06T09:19:04;15.40;38.60
29431;DHT22;16404;49.902;10.074;2023-04-06T09:21:49;15.50;38.30
29431;DHT22;16404;49.902;10.074;2023-04-06T09:27:36;15.70;37.80
29431;DHT22;16404;49.902;10.074;2023-04-06T09:30:21;15.90;37.40
29431;DHT22;16404;49.902;10.074;2023-04-06T09:33:10;16.00;36.90
29431;DHT22;16404;49.902;10.074;2023-04-06T09:35:54;16.10;37.40
29431;DHT22;16404;49.902;10.074;2023-04-06T09:41:36;16.20;37.00
29431;DHT22;16404;49.902;10.074;2023-04-06T09:44:20;16.30;37.20
29431;DHT22;16404;49.902;10.074;2023-04-06T09:47:06;16.40;36.90
29431;DHT22;16404;49.902;10.074;2023-04-06T09:49:56;16.40;36.40
29431;DHT22;16404;49.902;10.074;2023-04-06T09:52:46;16.50;36.40
29431;DHT22;16404;49.902;10.074;2023-04-06T09:55:40;16.60;36.70
29431;DHT22;16404;49.902;10.074;2023-04-06T09:58:26;16.70;36.10
29431;DHT22;16404;49.902;10.074;2023-04-06T10:01:15;16.70;35.80
29431;DHT22;16404;49.902;10.074;2023-04-06T10:07:23;16.70;35.00
29431;DHT22;16404;49.902;10.074;2023-04-06T10:10:08;16.80;34.90
29431;DHT22;16404;49.902;10.074;2023-04-06T10:12:54;16.90;35.00
29431;DHT22;16404;49.902;10.074;2023-04-06T10:15:40;16.90;35.10
29431;DHT22;16404;49.902;10.074;2023-04-06T10:18:27;16.90;34.50
29431;DHT22;16404;49.902;10.074;2023-04-06T10:21:16;16.90;35.00
29431;DHT22;16404;49.902;10.074;2023-04-06T10:24:08;16.90;34.90
29431;DHT22;16404;49.902;10.074;2023-04-06T10:27:03;16.80;35.80
29431;DHT22;16404;49.902;10.074;2023-04-06T10:29:50;16.60;35.10
29431;DHT22;16404;49.902;10.074;2023-04-06T10:32:37;16.50;35.00
29431;DHT22;16404;49.902;10.074;2023-04-06T10:35:22;16.40;35.00
29431;DHT22;16404;49.902;10.074;2023-04-06T10:40:51;16.10;35.00
29431;DHT22;16404;49.902;10.074;2023-04-06T10:43:37;16.00;35.20
29431;DHT22;16404;49.902;10.074;2023-04-06T10:46:27;15.90;35.40
29431;DHT22;16404;49.902;10.074;2023-04-06T10:49:12;15.80;35.30
29431;DHT22;16404;49.902;10.074;2023-04-06T10:51:57;15.80;35.30
29431;DHT22;16404;49.902;10.074;2023-04-06T10:54:42;15.70;35.30
29431;DHT22;16404;49.902;10.074;2023-04-06T10:57:30;15.70;34.90
29431;DHT22;16404;49.902;10.074;2023-04-06T11:00:18;15.60;34.50
29431;DHT22;16404;49.902;10.074;2023-04-06T11:03:03;15.60;34.70
29431;DHT22;16404;49.902;10.074;2023-04-06T11:05:49;15.50;34.80
29431;DHT22;16404;49.902;10.074;2023-04-06T11:08:35;15.40;34.20
29431;DHT22;16404;49.902;10.074;2023-04-06T11:11:22;15.30;33.90
29431;DHT22;16404;49.902;10.074;2023-04-06T11:14:09;15.10;33.80
29431;DHT22;16404;49.902;10.074;2023-04-06T11:16:54;15.10;34.00
29431;DHT22;16404;49.902;10.074;2023-04-06T11:19:39;15.10;34.40
29431;DHT22;16404;49.902;10.074;2023-04-06T11:22:24;15.20;34.50
29431;DHT22;16404;49.902;10.074;2023-04-06T11:25:09;15.20;33.80
29431;DHT22;16404;49.902;10.074;2023-04-06T11:27:54;15.40;33.00
29431;DHT22;16404;49.902;10.074;2023-04-06T11:30:38;15.50;32.90
29431;DHT22;16404;49.902;10.074;2023-04-06T11:33:23;15.50;32.60
29431;DHT22;16404;49.902;10.074;2023-04-06T11:36:08;15.50;32.50
29431;DHT22;16404;49.902;10.074;2023-04-06T11:38:53;15.30;33.00
29431;DHT22;16404;49.902;10.074;2023-04-06T11:41:37;15.40;33.50
29431;DHT22;16404;49.902;10.074;2023-04-06T11:44:38;15.40;33.60
29431;DHT22;16404;49.902;10.074;2023-04-06T11:47:34;15.40;33.20
29431;DHT22;16404;49.902;10.074;2023-04-06T11:50:19;15.40;32.60
29431;DHT22;16404;49.902;10.074;2023-04-06T11:53:03;15.40;33.10
29431;DHT22;16404;49.902;10.074;2023-04-06T11:55:48;15.50;33.10
29431;DHT22;16404;49.902;10.074;2023-04-06T11:58:33;15.50;32.50
29431;DHT22;16404;49.902;10.074;2023-04-06T12:01:17;15.60;32.50
29431;DHT22;16404;49.902;10.074;2023-04-06T12:04:02;15.50;32.50
29431;DHT22;16404;49.902;10.074;2023-04-06T12:06:48;15.60;32.30
29431;DHT22;16404;49.902;10.074;2023-04-06T12:09:32;15.80;32.50
29431;DHT22;16404;49.902;10.074;2023-04-06T12:12:18;15.90;32.90
29431;DHT22;16404;49.902;10.074;2023-04-06T12:15:03;15.90;32.10
29431;DHT22;16404;49.902;10.074;2023-04-06T12:17:49;15.90;32.40
29431;DHT22;16404;49.902;10.074;2023-04-06T12:20:36;15.90;32.50
29431;DHT22;16404;49.902;10.074;2023-04-06T12:23:21;16.00;32.40
29431;DHT22;16404;49.902;10.074;2023-04-06T12:26:05;16.00;32.70
29431;DHT22;16404;49.902;10.074;2023-04-06T12:28:50;16.00;32.60
29431;DHT22;16404;49.902;10.074;2023-04-06T12:31:35;16.10;32.30
29431;DHT22;16404;49.902;10.074;2023-04-06T12:34:20;16.20;31.60
29431;DHT22;16404;49.902;10.074;2023-04-06T12:37:04;16.20;31.90
29431;DHT22;16404;49.902;10.074;2023-04-06T12:39:49;16.40;32.30
29431;DHT22;16404;49.902;10.074;2023-04-06T12:42:34;16.40;31.90
29431;DHT22;16404;49.902;10.074;2023-04-06T12:45:19;16.50;31.80
29431;DHT22;16404;49.902;10.074;2023-04-06T12:48:03;16.50;31.30
29431;DHT22;16404;49.902;10.074;2023-04-06T12:50:58;16.60;31.10
29431;DHT22;16404;49.902;10.074;2023-04-06T12:53:43;16.60;30.40
29431;DHT22;16404;49.902;10.074;2023-04-06T12:56:28;16.70;30.80
29431;DHT22;16404;49.902;10.074;2023-04-06T12:59:12;16.70;30.80
29431;DHT22;16404;49.902;10.074;2023-04-06T13:01:57;16.60;30.50
29431;DHT22;16404;49.902;10.074;2023-04-06T13:04:42;16.50;30.60
29431;DHT22;16404;49.902;10.074;2023-04-06T13:07:26;16.60;30.70
29431;DHT22;16404;49.902;10.074;2023-04-06T13:10:11;16.60;30.60
29431;DHT22;16404;49.902;10.074;2023-04-06T13:12:55;16.60;30.30
29431;DHT22;16404;49.902;10.074;2023-04-06T13:15:40;16.70;30.60
29431;DHT22;16404;49.902;10.074;2023-04-06T13:18:25;16.70;30.90
29431;DHT22;16404;49.902;10.074;2023-04-06T13:21:12;16.70;30.80
29431;DHT22;16404;49.902;10.074;2023-04-06T13:23:58;16.90;31.00
29431;DHT22;16404;49.902;10.074;2023-04-06T13:26:42;16.90;30.40
29431;DHT22;16404;49.902;10.074;2023-04-06T13:29:27;16.80;30.60
29431;DHT22;16404;49.902;10.074;2023-04-06T13:32:12;16.90;30.90
29431;DHT22;16404;49.902;10.074;2023-04-06T13:34:57;16.90;31.20
29431;DHT22;16404;49.902;10.074;2023-04-06T13:37:42;17.00;30.70
29431;DHT22;16404;49.902;10.074;2023-04-06T13:40:27;17.00;30.40
29431;DHT22;16404;49.902;10.074;2023-04-06T13:43:11;17.10;30.50
29431;DHT22;16404;49.902;10.074;2023-04-06T13:45:57;17.20;30.00
29431;DHT22;16404;49.902;10.074;2023-04-06T13:48:44;17.20;30.00
29431;DHT22;16404;49.902;10.074;2023-04-06T13:51:28;17.20;29.80
29431;DHT22;16404;49.902;10.074;2023-04-06T13:54:13;17.20;29.40
29431;DHT22;16404;49.902;10.074;2023-04-06T13:56:57;17.30;29.30
29431;DHT22;16404;49.902;10.074;2023-04-06T13:59:42;17.30;29.10
29431;DHT22;16404;49.902;10.074;2023-04-06T14:02:27;17.30;29.30
29431;DHT22;16404;49.902;10.074;2023-04-06T14:05:11;17.30;29.50
29431;DHT22;16404;49.902;10.074;2023-04-06T14:07:56;17.40;29.50
29431;DHT22;16404;49.902;10.074;2023-04-06T14:10:41;17.40;29.60
29431;DHT22;16404;49.902;10.074;2023-04-06T14:13:26;17.30;29.80
29431;DHT22;16404;49.902;10.074;2023-04-06T14:16:11;17.30;29.80
29431;DHT22;16404;49.902;10.074;2023-04-06T14:18:56;17.40;29.70
29431;DHT22;16404;49.902;10.074;2023-04-06T14:21:42;17.50;29.90
29431;DHT22;16404;49.902;10.074;2023-04-06T14:24:27;17.40;29.80
29431;DHT22;16404;49.902;10.074;2023-04-06T14:27:12;17.40;29.80
29431;DHT22;16404;49.902;10.074;2023-04-06T14:29:56;17.40;29.70
29431;DHT22;16404;49.902;10.074;2023-04-06T14:32:41;17.30;29.20
29431;DHT22;16404;49.902;10.074;2023-04-06T14:35:26;17.30;28.70
29431;DHT22;16404;49.902;10.074;2023-04-06T14:38:12;17.30;28.80
29431;DHT22;16404;49.902;10.074;2023-04-06T14:40:56;17.40;29.10
29431;DHT22;16404;49.902;10.074;2023-04-06T14:43:41;17.40;29.30
29431;DHT22;16404;49.902;10.074;2023-04-06T14:46:26;17.30;29.10
29431;DHT22;16404;49.902;10.074;2023-04-06T14:49:13;17.20;29.00
29431;DHT22;16404;49.902;10.074;2023-04-06T14:51:59;17.20;28.90
29431;DHT22;16404;49.902;10.074;2023-04-06T14:54:44;17.30;28.90
29431;DHT22;16404;49.902;10.074;2023-04-06T14:57:28;17.40;28.80
29431;DHT22;16404;49.902;10.074;2023-04-06T15:00:13;17.40;28.70
29431;DHT22;16404;49.902;10.074;2023-04-06T15:02:58;17.30;29.00
29431;DHT22;16404;49.902;10.074;2023-04-06T15:05:43;17.30;29.10
29431;DHT22;16404;49.902;10.074;2023-04-06T15:08:28;17.30;29.30
29431;DHT22;16404;49.902;10.074;2023-04-06T15:11:13;17.30;29.30
29431;DHT22;16404;49.902;10.074;2023-04-06T15:13:59;17.20;29.20
29431;DHT22;16404;49.902;10.074;2023-04-06T15:16:44;17.30;29.40
29431;DHT22;16404;49.902;10.074;2023-04-06T15:19:29;17.30;29.20
29431;DHT22;16404;49.902;10.074;2023-04-06T15:22:13;17.20;28.90
29431;DHT22;16404;49.902;10.074;2023-04-06T15:24:58;17.20;29.00
29431;DHT22;16404;49.902;10.074;2023-04-06T15:27:42;17.20;29.20
29431;DHT22;16404;49.902;10.074;2023-04-06T15:30:27;17.10;29.10
29431;DHT22;16404;49.902;10.074;2023-04-06T15:33:12;17.10;28.90
29431;DHT22;16404;49.902;10.074;2023-04-06T15:35:56;17.10;28.70
29431;DHT22;16404;49.902;10.074;2023-04-06T15:38:41;17.10;28.80
29431;DHT22;16404;49.902;10.074;2023-04-06T15:41:26;17.10;28.80
29431;DHT22;16404;49.902;10.074;2023-04-06T15:44:11;16.90;28.90
29431;DHT22;16404;49.902;10.074;2023-04-06T15:46:56;17.00;28.90
29431;DHT22;16404;49.902;10.074;2023-04-06T15:49:41;16.90;28.70
29431;DHT22;16404;49.902;10.074;2023-04-06T15:52:25;17.00;28.70
29431;DHT22;16404;49.902;10.074;2023-04-06T15:55:10;16.90;28.80
29431;DHT22;16404;49.902;10.074;2023-04-06T15:57:55;16.90;28.60
29431;DHT22;16404;49.902;10.074;2023-04-06T16:00:39;16.90;28.90
29431;DHT22;16404;49.902;10.074;2023-04-06T16:03:24;16.90;29.00
29431;DHT22;16404;49.902;10.074;2023-04-06T16:06:09;16.90;29.00
29431;DHT22;16404;49.902;10.074;2023-04-06T16:08:54;16.80;29.00
29431;DHT22;16404;49.902;10.074;2023-04-06T16:11:38;16.80;29.10
29431;DHT22;16404;49.902;10.074;2023-04-06T16:14:23;16.70;29.10
29431;DHT22;16404;49.902;10.074;2023-04-06T16:17:08;16.70;29.30
29431;DHT22;16404;49.902;10.074;2023-04-06T16:19:52;16.70;29.50
29431;DHT22;16404;49.902;10.074;2023-04-06T16:22:37;16.60;29.30
29431;DHT22;16404;49.902;10.074;2023-04-06T16:25:21;16.60;29.60
29431;DHT22;16404;49.902;10.074;2023-04-06T16:28:06;16.60;29.90
29431;DHT22;16404;49.902;10.074;2023-04-06T16:30:51;16.60;30.00
29431;DHT22;16404;49.902;10.074;2023-04-06T16:33:35;16.50;29.70
29431;DHT22;16404;49.902;10.074;2023-04-06T16:36:28;16.40;29.90
29431;DHT22;16404;49.902;10.074;2023-04-06T16:39:12;16.40;30.10
29431;DHT22;16404;49.902;10.074;2023-04-06T16:41:58;16.30;30.30
29431;DHT22;16404;49.902;10.074;2023-04-06T16:44:43;16.20;30.30
29431;DHT22;16404;49.902;10.074;2023-04-06T16:47:27;16.10;30.10
29431;DHT22;16404;49.902;10.074;2023-04-06T16:50:12;16.10;30.20
29431;DHT22;16404;49.902;10.074;2023-04-06T16:52:56;16.10;30.20
29431;DHT22;16404;49.902;10.074;2023-04-06T16:55:41;16.00;30.40
29431;DHT22;16404;49.902;10.074;2023-04-06T16:58:26;16.00;30.50
29431;DHT22;16404;49.902;10.074;2023-04-06T17:01:22;15.90;30.70
29431;DHT22;16404;49.902;10.074;2023-04-06T17:04:07;15.80;31.40
29431;DHT22;16404;49.902;10.074;2023-04-06T17:06:51;15.80;31.40
29431;DHT22;16404;49.902;10.074;2023-04-06T17:09:36;15.70;31.90
29431;DHT22;16404;49.902;10.074;2023-04-06T17:12:20;15.60;32.60
29431;DHT22;16404;49.902;10.074;2023-04-06T17:15:05;15.50;33.10
29431;DHT22;16404;49.902;10.074;2023-04-06T17:17:50;15.40;33.50
29431;DHT22;16404;49.902;10.074;2023-04-06T17:20:35;15.40;33.70
29431;DHT22;16404;49.902;10.074;2023-04-06T17:23:20;15.30;34.00
29431;DHT22;16404;49.902;10.074;2023-04-06T17:26:07;15.20;34.10
29431;DHT22;16404;49.902;10.074;2023-04-06T17:28:52;15.20;34.20
29431;DHT22;16404;49.902;10.074;2023-04-06T17:31:36;15.10;34.40